South Elma, Washington
Current Conditions -  °F | °C
As of 5:53 AM on Saturday 20 Dec 2014 (Local Time) from KSHN Reporting Station
Light Rain Light Rain  
Wind Chill: 41°   Ceiling: 2300
Heat Index: 45°   Visibility: 5mi
Dew Point: 43°   Wind: 8mph
Humidity: 93%   Direction: 90°E
Pressure: 29.61"   Gusts: NA
Location:  46.9859°N, 123.385°W
Report Text: KSHN 201353Z AUTO 09007KT 5SM -RA BR FEW007 BKN023 OVC039 07/06 A2961 RMK AO2 SLP029 P0018 T00720061
Loading
Personal Weather Stations






























Interactive Weather Map New forecast layout! Learn more

10-Day Weather Forecast

Advertisements
Track Severe Weather on mobile